Time;durP1;ratioP1;P1;durP2;ratioP2;P2;SDS_P1;SDS_P2;PMS_P1;PMS_P2;Temp;Humidity;BMP_temperature;BMP_pressure;BME280_temperature;BME280_humidity;BME280_pressure;Samples;Min_cycle;Max_cycle;Signal;HPM_P1;HPM_P2
2022/05/29 00:01:06;;;;;;;3.60;2.20;;;10.80;63.60;;;;;;4950037;28;20038;-68
2022/05/29 00:03:32;;;;;;;3.42;2.03;;;10.70;63.60;;;;;;4949958;28;20034;-68
2022/05/29 00:05:57;;;;;;;3.72;1.90;;;10.70;63.70;;;;;;4953849;28;20498;-68
2022/05/29 00:08:29;;;;;;;3.90;2.30;;;10.60;64.00;;;;;;4953074;28;20121;-68
2022/05/29 00:10:56;;;;;;;2.25;2.00;;;10.50;64.50;;;;;;4951160;28;20590;-69
2022/05/29 00:13:22;;;;;;;2.58;2.10;;;10.40;64.30;;;;;;4953633;28;20165;-68
2022/05/29 00:15:48;;;;;;;3.53;2.00;;;10.40;64.50;;;;;;4950738;28;20510;-68
2022/05/29 00:18:14;;;;;;;3.13;1.92;;;10.30;64.80;;;;;;4952787;28;20059;-68
2022/05/29 00:20:40;;;;;;;2.47;2.10;;;10.30;65.00;;;;;;4950005;28;20366;-68
2022/05/29 00:23:07;;;;;;;2.60;1.80;;;10.10;65.30;;;;;;4952975;28;20510;-68
2022/05/29 00:25:33;;;;;;;2.42;2.08;;;10.10;65.50;;;;;;4953489;28;20062;-68
2022/05/29 00:27:59;;;;;;;1.98;1.83;;;10.10;65.70;;;;;;4960050;28;20402;-68
2022/05/29 00:30:25;;;;;;;2.60;1.77;;;10.10;65.80;;;;;;4951316;28;20027;-68
2022/05/29 00:32:50;;;;;;;2.80;1.67;;;10.10;66.80;;;;;;4954252;28;20046;-69
2022/05/29 00:35:16;;;;;;;3.75;1.50;;;10.10;66.00;;;;;;4955163;28;20039;-68
2022/05/29 00:37:42;;;;;;;2.38;1.42;;;10.10;66.00;;;;;;4956379;28;20043;-67
2022/05/29 00:40:33;;;;;;;2.00;1.17;;;10.10;66.00;;;;;;4954578;28;20066;-68
2022/05/29 00:42:59;;;;;;;2.70;1.40;;;10.10;66.90;;;;;;4951451;28;20062;-68
2022/05/29 00:45:25;;;;;;;2.65;1.52;;;10.20;65.90;;;;;;4955885;28;20117;-65
2022/05/29 00:47:50;;;;;;;2.28;1.50;;;10.20;65.80;;;;;;4955991;28;20046;-68
2022/05/29 00:50:23;;;;;;;3.70;1.73;;;10.20;65.70;;;;;;4957500;28;20043;-68
2022/05/29 00:52:50;;;;;;;1.65;1.38;;;10.20;66.60;;;;;;4959315;28;20035;-68
2022/05/29 00:55:21;;;;;;;2.05;1.48;;;10.10;66.10;;;;;;4953676;28;20898;-68
2022/05/29 00:57:53;;;;;;;2.97;1.50;;;10.10;66.60;;;;;;4955969;28;20062;-68
2022/05/29 01:00:26;;;;;;;1.92;1.55;;;10.00;66.70;;;;;;4954241;28;20043;-68
2022/05/29 01:02:53;;;;;;;4.07;1.83;;;10.00;66.80;;;;;;4954565;28;20053;-65
2022/05/29 01:05:21;;;;;;;3.92;1.70;;;10.00;66.80;;;;;;4955365;28;20047;-68
2022/05/29 01:07:53;;;;;;;2.92;1.70;;;10.00;66.90;;;;;;4955254;28;20031;-69
2022/05/29 01:10:19;;;;;;;1.67;1.50;;;10.00;67.80;;;;;;4958093;28;20050;-68
2022/05/29 01:12:57;;;;;;;4.53;1.67;;;10.00;66.60;;;;;;4954884;28;20597;-67
2022/05/29 01:15:54;;;;;;;2.83;1.27;;;10.00;66.90;;;;;;4957802;28;20739;-67
2022/05/29 01:18:48;;;;;;;2.53;1.50;;;10.10;67.40;;;;;;4955030;28;20038;-68
2022/05/29 01:21:29;;;;;;;3.47;1.70;;;10.10;67.20;;;;;;4955836;28;20058;-68
2022/05/29 01:24:19;;;;;;;2.53;1.50;;;10.20;67.30;;;;;;4956393;28;20032;-68
2022/05/29 01:26:58;;;;;;;1.77;1.60;;;10.20;67.60;;;;;;4954750;28;20593;-68
2022/05/29 01:29:58;;;;;;;2.53;1.55;;;10.10;66.50;;;;;;4955886;28;20039;-67
2022/05/29 01:32:38;;;;;;;4.07;1.80;;;10.10;67.50;;;;;;4954836;28;20510;-66
2022/05/29 01:35:12;;;;;;;3.40;1.60;;;10.10;67.00;;;;;;4956035;28;20095;-68
2022/05/29 01:37:58;;;;;;;4.35;1.60;;;10.10;67.10;;;;;;4955470;28;20098;-68
2022/05/29 01:40:29;;;;;;;2.35;1.60;;;10.10;67.80;;;;;;4954049;28;20131;-68
2022/05/29 01:42:57;;;;;;;3.00;1.50;;;10.00;67.40;;;;;;4951515;28;20179;-69
2022/05/29 01:45:53;;;;;;;3.17;1.40;;;10.00;67.30;;;;;;4951767;28;20666;-68
2022/05/29 01:48:24;;;;;;;4.10;2.00;;;10.00;67.60;;;;;;4957438;28;20035;-69
2022/05/29 01:50:54;;;;;;;2.75;1.80;;;10.10;67.60;;;;;;4956206;28;20062;-68
2022/05/29 01:53:31;;;;;;;3.33;1.90;;;10.10;67.60;;;;;;4954749;28;20059;-68
2022/05/29 01:56:01;;;;;;;2.00;1.80;;;10.10;67.80;;;;;;4952892;28;20061;-68
2022/05/29 01:58:39;;;;;;;1.75;1.65;;;10.20;67.30;;;;;;4953630;28;20303;-68
2022/05/29 02:01:09;;;;;;;6.63;1.70;;;10.10;67.30;;;;;;4954204;28;20039;-68
2022/05/29 02:03:39;;;;;;;2.42;1.90;;;10.10;67.20;;;;;;4953502;28;20106;-68
2022/05/29 02:07:47;;;;;;;5.75;1.70;;;10.10;67.30;;;;;;4955795;28;20122;-68
2022/05/29 02:09:21;;;;;;;3.47;1.70;;;10.00;67.70;;;;;;4953300;28;20161;-68
2022/05/29 02:11:53;;;;;;;3.10;1.90;;;10.00;66.90;;;;;;4951617;28;20398;-67
2022/05/29 02:14:24;;;;;;;3.50;1.90;;;9.90;67.40;;;;;;4954350;28;21322;-68
2022/05/29 02:16:56;;;;;;;2.38;1.70;;;9.80;67.40;;;;;;4956431;28;20032;-66
2022/05/29 02:19:36;;;;;;;3.05;1.85;;;9.80;67.60;;;;;;4953558;28;20063;-68
2022/05/29 02:22:04;;;;;;;2.95;2.00;;;9.80;68.40;;;;;;4956296;28;20118;-67
2022/05/29 02:24:35;;;;;;;5.80;1.80;;;9.70;67.90;;;;;;4954443;28;22477;-68
2022/05/29 02:27:28;;;;;;;2.47;1.65;;;9.70;68.00;;;;;;4954370;28;20050;-69
2022/05/29 02:29:56;;;;;;;3.40;1.80;;;9.70;68.40;;;;;;4956033;28;20561;-68
2022/05/29 02:32:33;;;;;;;2.08;1.80;;;9.70;67.60;;;;;;4955703;28;20032;-68
2022/05/29 02:35:20;;;;;;;5.47;1.85;;;9.70;68.50;;;;;;4955070;28;20096;-68
2022/05/29 02:38:06;;;;;;;4.03;1.70;;;9.70;68.10;;;;;;4952782;28;20122;-68
2022/05/29 02:40:56;;;;;;;5.40;1.70;;;9.60;67.80;;;;;;4953795;28;20043;-67
2022/05/29 02:43:21;;;;;;;2.47;1.63;;;9.50;68.10;;;;;;4950762;28;20144;-67
2022/05/29 02:46:09;;;;;;;2.50;2.00;;;9.50;67.80;;;;;;4954985;28;20039;-68
2022/05/29 02:48:49;;;;;;;4.93;2.10;;;9.40;68.40;;;;;;4953392;28;20695;-67
2022/05/29 02:51:38;;;;;;;2.58;2.05;;;9.30;68.40;;;;;;4953959;28;20399;-68
2022/05/29 02:54:04;;;;;;;4.70;2.10;;;9.30;68.90;;;;;;4951736;28;20031;-69
2022/05/29 02:56:30;;;;;;;4.32;2.00;;;9.20;68.30;;;;;;4952154;28;20156;-65
2022/05/29 02:58:58;;;;;;;4.20;2.08;;;9.20;68.50;;;;;;4955290;28;20101;-67
2022/05/29 03:01:44;;;;;;;3.08;2.35;;;9.10;68.80;;;;;;4953564;28;20510;-68
2022/05/29 03:04:18;;;;;;;3.55;2.00;;;9.10;69.20;;;;;;4955103;28;20058;-68
2022/05/29 03:06:57;;;;;;;4.32;2.13;;;9.00;69.40;;;;;;4952689;28;20062;-67
2022/05/29 03:09:41;;;;;;;2.78;2.30;;;9.00;69.60;;;;;;4954655;28;20117;-68
2022/05/29 03:12:17;;;;;;;4.13;2.28;;;8.90;69.10;;;;;;4952494;28;20511;-67
2022/05/29 03:15:12;;;;;;;5.80;3.30;;;8.90;69.60;;;;;;4954052;28;20051;-67
2022/05/29 03:17:48;;;;;;;9.57;4.20;;;8.80;69.50;;;;;;4951538;28;20035;-68
2022/05/29 03:20:19;;;;;;;14.40;5.32;;;8.80;69.60;;;;;;4954194;28;20395;-68
2022/05/29 03:22:51;;;;;;;4.85;2.60;;;8.80;69.40;;;;;;4958418;28;20268;-67
2022/05/29 03:25:30;;;;;;;3.92;2.40;;;8.80;69.30;;;;;;4953039;28;20035;-68
2022/05/29 03:27:58;;;;;;;4.80;2.38;;;8.90;69.70;;;;;;4950761;28;20110;-68
2022/05/29 03:30:31;;;;;;;2.42;2.13;;;8.90;69.20;;;;;;4952892;28;20047;-67
2022/05/29 03:32:59;;;;;;;3.90;2.08;;;8.90;69.30;;;;;;4953636;28;20041;-67
2022/05/29 03:35:32;;;;;;;3.15;2.05;;;8.90;69.00;;;;;;4953623;28;20055;-68
2022/05/29 03:38:00;;;;;;;2.42;1.83;;;8.90;69.00;;;;;;4952009;28;20039;-68
2022/05/29 03:40:28;;;;;;;2.25;1.95;;;8.90;68.90;;;;;;4952842;28;20034;-67
2022/05/29 03:42:54;;;;;;;2.60;1.70;;;8.90;69.00;;;;;;4954176;28;20711;-68
2022/05/29 03:45:21;;;;;;;5.20;1.80;;;8.90;68.90;;;;;;4952547;28;20035;-68
2022/05/29 03:47:46;;;;;;;2.65;1.85;;;8.90;69.00;;;;;;4952796;28;20558;-68
2022/05/29 03:50:16;;;;;;;2.53;1.75;;;9.00;69.00;;;;;;4954645;28;20030;-68
2022/05/29 03:52:42;;;;;;;3.95;1.75;;;8.90;69.70;;;;;;4949656;28;20058;-66
2022/05/29 03:55:09;;;;;;;3.40;1.92;;;8.90;68.60;;;;;;4953307;28;20039;-68
2022/05/29 03:57:35;;;;;;;3.50;1.88;;;8.80;68.70;;;;;;4951938;28;20078;-68
2022/05/29 04:00:01;;;;;;;3.72;1.92;;;8.80;68.80;;;;;;4952872;28;20042;-68
2022/05/29 04:02:27;;;;;;;2.72;1.80;;;8.70;68.90;;;;;;4959511;28;20073;-68
2022/05/29 04:04:52;;;;;;;2.22;1.70;;;8.80;69.20;;;;;;4960391;28;20402;-68
2022/05/29 04:07:18;;;;;;;3.22;2.05;;;8.80;69.30;;;;;;4959127;28;20043;-68
2022/05/29 04:12:29;;;;;;;4.38;2.00;;;8.80;69.30;;;;;;4956225;28;20067;-67
2022/05/29 04:14:55;;;;;;;2.80;1.70;;;8.80;69.20;;;;;;4958675;28;20129;-68
2022/05/29 04:17:20;;;;;;;2.85;1.90;;;8.70;69.20;;;;;;4957916;28;20469;-68
2022/05/29 04:19:46;;;;;;;3.13;1.75;;;8.70;69.30;;;;;;4957366;28;20498;-66
2022/05/29 04:22:18;;;;;;;2.83;2.00;;;8.70;69.70;;;;;;4960491;28;20027;-68
2022/05/29 04:24:44;;;;;;;5.03;1.77;;;8.70;70.20;;;;;;4959156;28;20042;-67
2022/05/29 04:27:12;;;;;;;5.75;2.00;;;8.60;69.90;;;;;;4957774;28;20378;-68
2022/05/29 04:29:38;;;;;;;3.65;1.80;;;8.60;70.00;;;;;;4959390;28;20800;-68
2022/05/29 04:34:52;;;;;;;2.20;1.73;;;8.60;70.40;;;;;;4958152;28;20116;-68
2022/05/29 04:37:17;;;;;;;2.60;2.00;;;8.60;70.60;;;;;;4955298;28;20042;-68
2022/05/29 04:39:43;;;;;;;5.07;2.20;;;8.60;70.70;;;;;;4956350;28;20513;-67
2022/05/29 04:42:10;;;;;;;4.75;2.10;;;8.60;70.90;;;;;;4958170;28;20027;-66
2022/05/29 04:44:37;;;;;;;5.72;2.15;;;8.60;71.10;;;;;;4955290;28;20120;-67
2022/05/29 04:47:03;;;;;;;2.22;1.75;;;8.70;71.10;;;;;;4959516;28;20090;-68
2022/05/29 04:49:29;;;;;;;3.95;2.00;;;8.60;71.20;;;;;;4956744;28;20031;-68
2022/05/29 04:51:55;;;;;;;3.30;1.95;;;8.70;71.80;;;;;;4961305;28;20027;-68
2022/05/29 04:54:21;;;;;;;2.65;2.10;;;8.70;71.40;;;;;;4959373;28;20401;-67
2022/05/29 04:56:48;;;;;;;4.65;2.17;;;8.70;72.50;;;;;;4956877;28;20451;-69
2022/05/29 04:59:14;;;;;;;3.92;2.08;;;8.80;71.70;;;;;;4960684;28;20414;-68
2022/05/29 05:01:39;;;;;;;3.45;2.05;;;8.80;71.80;;;;;;4959445;28;20035;-68
2022/05/29 05:04:05;;;;;;;2.80;1.77;;;8.90;72.00;;;;;;4957177;28;20043;-68
2022/05/29 05:06:31;;;;;;;5.22;1.90;;;8.90;72.00;;;;;;4958561;28;20100;-68
2022/05/29 05:08:56;;;;;;;2.63;2.00;;;9.00;71.80;;;;;;4957449;28;20039;-68
2022/05/29 05:11:22;;;;;;;2.20;1.70;;;9.10;71.70;;;;;;4953502;28;20035;-68
2022/05/29 05:13:48;;;;;;;3.03;1.58;;;9.20;71.80;;;;;;4953267;28;20081;-68
2022/05/29 05:16:13;;;;;;;2.22;1.70;;;9.30;71.80;;;;;;4958688;28;20027;-68
2022/05/29 05:18:39;;;;;;;2.95;1.83;;;9.40;72.60;;;;;;4955556;28;21711;-67
2022/05/29 05:21:07;;;;;;;2.40;1.90;;;9.50;71.50;;;;;;4954367;28;20035;-68
2022/05/29 05:23:33;;;;;;;3.03;1.80;;;9.60;71.40;;;;;;4956642;28;20043;-68
2022/05/29 05:25:59;;;;;;;4.38;1.88;;;9.80;71.40;;;;;;4957080;28;20513;-68
2022/05/29 05:28:25;;;;;;;3.42;1.50;;;9.90;71.00;;;;;;4954235;28;20035;-68
2022/05/29 05:30:50;;;;;;;2.63;1.48;;;10.00;70.60;;;;;;4955956;28;20031;-68
2022/05/29 05:33:16;;;;;;;3.35;1.50;;;10.10;70.10;;;;;;4955884;28;20038;-68
2022/05/29 05:35:41;;;;;;;2.42;1.77;;;10.20;69.90;;;;;;4955988;28;20038;-67
2022/05/29 05:38:07;;;;;;;4.93;1.80;;;10.40;69.60;;;;;;4957388;28;20580;-69
2022/05/29 05:40:33;;;;;;;4.50;1.80;;;10.50;69.50;;;;;;4954734;28;20039;-67
2022/05/29 05:42:59;;;;;;;2.83;1.70;;;10.60;69.40;;;;;;4955509;28;20054;-68
2022/05/29 05:45:24;;;;;;;2.70;1.60;;;10.60;69.20;;;;;;4955624;28;20276;-68
2022/05/29 05:47:50;;;;;;;3.05;1.65;;;10.70;69.10;;;;;;4953186;28;20086;-68
2022/05/29 05:50:16;;;;;;;1.70;1.60;;;10.80;69.00;;;;;;4954619;28;20023;-68
2022/05/29 05:52:42;;;;;;;3.00;1.80;;;10.90;68.80;;;;;;4954365;28;20151;-65
2022/05/29 05:55:12;;;;;;;5.47;1.60;;;11.00;68.80;;;;;;4957144;28;20035;-68
2022/05/29 05:57:39;;;;;;;4.15;1.95;;;11.00;68.70;;;;;;4955960;28;20101;-68
2022/05/29 06:00:07;;;;;;;3.25;1.92;;;11.10;68.70;;;;;;4951869;28;20066;-68
2022/05/29 06:02:32;;;;;;;3.25;1.58;;;11.20;68.60;;;;;;4954445;28;20055;-68
2022/05/29 06:04:58;;;;;;;2.47;1.90;;;11.30;68.40;;;;;;4952536;28;20066;-67
2022/05/29 06:07:24;;;;;;;4.63;1.67;;;11.30;68.20;;;;;;4954310;28;22129;-68
2022/05/29 06:09:49;;;;;;;1.70;1.60;;;11.40;68.10;;;;;;4958637;28;20083;-68
2022/05/29 06:12:19;;;;;;;5.10;1.60;;;11.50;67.80;;;;;;4954034;28;20036;-65
2022/05/29 06:14:45;;;;;;;3.40;1.80;;;11.60;67.40;;;;;;4956033;28;20065;-67
2022/05/29 06:17:11;;;;;;;3.47;1.77;;;11.70;67.20;;;;;;4957148;28;20047;-66
2022/05/29 06:19:37;;;;;;;2.97;2.00;;;11.80;67.10;;;;;;4955354;28;20122;-65
2022/05/29 06:22:03;;;;;;;2.28;1.85;;;11.90;66.30;;;;;;4954859;28;20584;-66
2022/05/29 06:24:28;;;;;;;2.92;1.90;;;11.90;66.10;;;;;;4953882;28;20047;-66
2022/05/29 06:26:58;;;;;;;2.88;1.90;;;12.00;66.20;;;;;;4937208;28;20522;-66
2022/05/29 06:29:24;;;;;;;2.38;1.70;;;12.00;66.10;;;;;;4942009;28;20530;-65
2022/05/29 06:31:50;;;;;;;4.38;2.25;;;12.10;66.20;;;;;;4941975;28;20065;-65
2022/05/29 06:34:16;;;;;;;2.50;1.80;;;12.20;65.70;;;;;;4946476;28;20043;-65
2022/05/29 06:36:41;;;;;;;3.08;2.00;;;12.20;65.70;;;;;;4945816;28;20039;-63
2022/05/29 06:39:07;;;;;;;2.00;1.80;;;12.30;65.90;;;;;;4947253;28;20043;-65
2022/05/29 06:41:34;;;;;;;2.83;1.63;;;12.40;65.80;;;;;;4949542;28;20038;-65
2022/05/29 06:44:00;;;;;;;2.25;1.90;;;12.50;65.60;;;;;;4944131;28;20054;-65
2022/05/29 06:46:25;;;;;;;2.28;1.90;;;12.60;65.10;;;;;;4946550;28;20039;-65
2022/05/29 06:48:51;;;;;;;2.53;1.90;;;12.60;64.60;;;;;;4948054;28;20036;-63
2022/05/29 06:51:21;;;;;;;2.95;1.58;;;12.70;64.60;;;;;;4948059;28;20539;-65
2022/05/29 06:53:49;;;;;;;2.83;1.77;;;12.70;64.80;;;;;;4948385;28;20118;-64
2022/05/29 06:56:16;;;;;;;2.53;1.70;;;12.80;64.60;;;;;;4950731;28;21688;-65
2022/05/29 06:58:42;;;;;;;2.25;1.90;;;12.80;64.60;;;;;;4946157;28;20042;-63
2022/05/29 07:07:01;;;;;;;2.10;1.50;;;13.00;63.80;;;;;;4955685;28;19980;-65
2022/05/29 07:09:30;;;;;;;3.17;2.17;;;13.10;64.10;;;;;;4957674;28;20271;-65
2022/05/29 07:12:10;;;;;;;2.10;1.55;;;13.20;63.80;;;;;;4950475;28;20046;-66
2022/05/29 07:14:40;;;;;;;2.25;1.20;;;13.20;64.00;;;;;;4958100;28;20104;-66
2022/05/29 07:17:06;;;;;;;1.60;1.45;;;13.30;63.60;;;;;;4955466;28;20074;-68
2022/05/29 07:19:34;;;;;;;3.08;1.38;;;13.40;63.30;;;;;;4956945;28;20035;-65
2022/05/29 07:21:59;;;;;;;1.40;1.30;;;13.50;63.00;;;;;;4957820;28;20039;-65
2022/05/29 07:24:27;;;;;;;3.20;1.63;;;13.60;62.70;;;;;;4955028;28;20130;-64
2022/05/29 07:26:53;;;;;;;2.92;1.30;;;13.60;61.80;;;;;;4953480;28;20043;-65
2022/05/29 07:29:20;;;;;;;1.70;1.60;;;13.70;61.90;;;;;;4955496;28;20410;-66
2022/05/29 07:31:46;;;;;;;1.85;1.25;;;13.70;61.30;;;;;;4956371;28;20039;-63
2022/05/29 07:34:11;;;;;;;1.65;1.13;;;13.70;60.80;;;;;;4958287;28;20047;-66
2022/05/29 07:36:38;;;;;;;2.65;1.40;;;13.70;60.50;;;;;;4955175;28;20037;-65
2022/05/29 07:39:04;;;;;;;2.72;1.40;;;13.80;60.60;;;;;;4955231;28;20033;-65
2022/05/29 07:44:14;;;;;;;2.03;1.40;;;13.80;60.40;;;;;;4956482;28;20536;-66
2022/05/29 07:46:40;;;;;;;1.90;1.23;;;13.80;60.20;;;;;;4954531;28;20038;-66
2022/05/29 07:49:06;;;;;;;1.63;1.17;;;13.90;60.40;;;;;;4952118;28;20035;-65
2022/05/29 07:51:33;;;;;;;2.17;1.33;;;13.90;60.50;;;;;;4952314;28;20039;-64
2022/05/29 07:53:58;;;;;;;1.75;1.27;;;14.00;60.70;;;;;;4954881;28;20506;-65
2022/05/29 07:56:27;;;;;;;2.90;1.40;;;14.00;60.80;;;;;;4953792;28;20038;-66
2022/05/29 07:58:53;;;;;;;3.55;1.45;;;14.10;60.90;;;;;;4952626;28;20700;-64
2022/05/29 08:01:19;;;;;;;3.15;1.70;;;14.20;60.80;;;;;;4950710;28;20047;-66
2022/05/29 08:03:45;;;;;;;4.25;1.40;;;14.40;60.90;;;;;;4951041;28;20122;-65
2022/05/29 08:06:11;;;;;;;2.10;1.40;;;14.50;60.80;;;;;;4947714;28;20036;-65
2022/05/29 08:08:37;;;;;;;4.07;1.30;;;14.70;60.30;;;;;;4952796;28;20055;-64
2022/05/29 08:11:03;;;;;;;2.78;1.35;;;14.80;59.20;;;;;;4955056;28;20510;-65
2022/05/29 08:13:31;;;;;;;1.38;1.27;;;15.00;58.40;;;;;;4948862;28;20541;-65
2022/05/29 08:15:56;;;;;;;1.73;1.00;;;15.10;58.30;;;;;;4959651;28;20721;-65
2022/05/29 08:18:23;;;;;;;3.90;1.00;;;15.20;58.70;;;;;;4956845;28;20114;-67
2022/05/29 08:20:51;;;;;;;1.50;1.05;;;15.20;58.20;;;;;;4955352;28;20128;-66
2022/05/29 08:23:18;;;;;;;1.15;1.02;;;15.40;58.40;;;;;;4957888;28;20031;-66
2022/05/29 08:31:12;;;;;;;1.67;1.02;;;15.70;57.00;;;;;;4956522;28;20031;-65
2022/05/29 08:33:40;;;;;;;2.05;0.98;;;15.80;55.80;;;;;;4953618;28;20069;-66
2022/05/29 08:36:11;;;;;;;1.13;0.90;;;15.90;55.30;;;;;;4956840;28;20090;-66
2022/05/29 08:38:39;;;;;;;2.03;1.10;;;16.00;56.20;;;;;;4969062;28;20126;-66
2022/05/29 08:41:15;;;;;;;1.63;0.82;;;16.00;54.60;;;;;;4961098;28;20267;-66
2022/05/29 08:43:55;;;;;;;1.92;1.10;;;16.10;54.30;;;;;;4955771;28;20031;-66
2022/05/29 08:46:27;;;;;;;2.13;1.20;;;16.10;54.30;;;;;;4955702;28;20035;-66
2022/05/29 08:48:54;;;;;;;1.42;0.90;;;16.10;53.00;;;;;;4959669;28;20035;-66
2022/05/29 08:51:44;;;;;;;4.15;1.40;;;16.10;53.70;;;;;;4960234;28;20125;-66
2022/05/29 08:54:16;;;;;;;2.22;0.80;;;16.20;54.50;;;;;;4957489;28;20418;-63
2022/05/29 08:56:51;;;;;;;1.48;1.05;;;16.30;55.20;;;;;;4954931;28;20490;-63
2022/05/29 08:59:20;;;;;;;1.77;0.90;;;16.40;54.70;;;;;;4961118;28;20402;-66
2022/05/29 09:02:12;;;;;;;2.15;0.95;;;16.50;54.90;;;;;;4959582;28;20554;-66
2022/05/29 09:04:45;;;;;;;3.67;1.08;;;16.60;54.00;;;;;;4960847;28;20039;-66
2022/05/29 09:07:15;;;;;;;2.22;0.98;;;16.80;54.50;;;;;;4957093;28;20089;-66
2022/05/29 09:10:00;;;;;;;2.22;1.00;;;16.90;54.40;;;;;;4955175;28;20039;-66
2022/05/29 09:12:41;;;;;;;4.47;1.02;;;17.00;54.40;;;;;;4958630;28;20574;-66
2022/05/29 09:15:12;;;;;;;1.95;1.25;;;17.20;53.70;;;;;;4959407;28;20143;-66
2022/05/29 09:17:48;;;;;;;3.17;1.30;;;17.40;53.60;;;;;;4956716;28;20712;-63
2022/05/29 09:20:37;;;;;;;2.75;1.20;;;17.50;53.00;;;;;;4958781;28;20042;-66
2022/05/29 09:23:05;;;;;;;1.33;1.00;;;17.60;51.50;;;;;;4956113;28;20035;-66
2022/05/29 09:25:40;;;;;;;2.10;0.95;;;17.70;52.40;;;;;;4953980;28;20113;-66
2022/05/29 09:28:35;;;;;;;1.23;0.98;;;17.80;51.80;;;;;;4960440;28;20031;-66
2022/05/29 09:31:25;;;;;;;2.60;1.00;;;17.90;51.00;;;;;;4955705;28;20786;-67
2022/05/29 09:33:51;;;;;;;2.17;0.90;;;17.90;51.40;;;;;;4954224;28;20415;-66
2022/05/29 09:36:50;;;;;;;2.30;1.20;;;17.80;51.60;;;;;;4961777;28;20313;-66
2022/05/29 09:39:33;;;;;;;4.50;0.95;;;17.80;49.00;;;;;;4960215;28;20963;-67
2022/05/29 09:42:17;;;;;;;2.05;0.93;;;17.80;51.10;;;;;;4957223;28;20083;-66
2022/05/29 09:45:09;;;;;;;2.13;0.90;;;17.80;51.80;;;;;;4959371;28;20043;-66
2022/05/29 09:50:19;;;;;;;2.37;1.13;;;18.00;51.70;;;;;;4959958;28;20119;-66
2022/05/29 09:52:45;;;;;;;1.65;0.93;;;18.10;52.00;;;;;;4958824;28;20047;-66
2022/05/29 09:55:19;;;;;;;1.73;1.40;;;18.10;51.20;;;;;;4960269;28;20049;-66
2022/05/29 09:57:48;;;;;;;3.90;1.58;;;18.20;50.80;;;;;;4957795;28;20123;-66
2022/05/29 10:00:23;;;;;;;5.40;1.33;;;18.20;50.50;;;;;;4958007;28;20787;-65
2022/05/29 10:02:49;;;;;;;2.53;1.33;;;18.20;48.80;;;;;;4959167;28;20534;-66
2022/05/29 10:05:25;;;;;;;1.77;0.90;;;18.10;49.00;;;;;;4960963;28;20042;-67
2022/05/29 10:07:52;;;;;;;3.20;1.08;;;18.00;49.00;;;;;;4958930;28;20024;-66
2022/05/29 10:10:24;;;;;;;2.10;1.10;;;17.90;49.70;;;;;;4958753;28;20523;-66
2022/05/29 10:12:55;;;;;;;1.30;0.82;;;17.80;49.70;;;;;;4955248;28;20035;-67
2022/05/29 10:15:26;;;;;;;2.10;0.90;;;17.60;50.40;;;;;;4964190;28;20050;-67
2022/05/29 10:18:01;;;;;;;3.53;1.10;;;17.50;50.20;;;;;;4958753;28;20042;-67
2022/05/29 10:20:27;;;;;;;;;;;17.30;49.00;;;;;;4957402;28;20073;-67
2022/05/29 10:22:55;;;;;;;2.85;1.08;;;17.20;48.50;;;;;;4956608;28;20357;-66
2022/05/29 10:25:27;;;;;;;1.52;0.93;;;17.00;49.70;;;;;;4958525;28;20039;-67
2022/05/29 10:27:56;;;;;;;2.88;0.70;;;16.80;49.80;;;;;;4958005;28;20074;-66
2022/05/29 10:30:42;;;;;;;2.58;0.90;;;16.40;50.50;;;;;;4959961;28;20054;-66
2022/05/29 10:33:30;;;;;;;2.65;0.93;;;16.10;51.50;;;;;;4949479;28;20588;-68
2022/05/29 10:36:09;;;;;;;1.60;0.90;;;15.70;53.00;;;;;;4969998;28;20043;-67
2022/05/29 10:38:35;;;;;;;2.78;1.10;;;15.40;54.50;;;;;;4955601;28;20086;-66
2022/05/29 10:41:03;;;;;;;1.52;1.10;;;15.10;56.40;;;;;;4958551;28;20047;-66
2022/05/29 10:43:43;;;;;;;1.75;1.10;;;14.70;57.20;;;;;;4958788;28;20043;-65
2022/05/29 10:46:26;;;;;;;2.55;1.10;;;14.40;59.20;;;;;;4955441;28;20035;-65
2022/05/29 10:49:07;;;;;;;2.28;0.80;;;14.10;59.70;;;;;;4959176;28;20050;-65
2022/05/29 10:51:54;;;;;;;2.03;1.08;;;13.80;59.90;;;;;;4957916;28;20024;-65
2022/05/29 10:54:24;;;;;;;1.33;1.15;;;13.40;61.20;;;;;;4958083;28;20032;-65
2022/05/29 10:57:09;;;;;;;2.53;1.50;;;13.00;62.50;;;;;;4964761;28;20031;-65
2022/05/29 10:59:50;;;;;;;2.72;0.98;;;12.70;65.70;;;;;;4959920;28;20027;-65
2022/05/29 11:05:33;;;;;;;1.98;0.90;;;12.20;65.50;;;;;;4957021;28;20422;-66
2022/05/29 11:08:02;;;;;;;2.05;1.20;;;12.00;67.40;;;;;;4958766;28;20040;-65
2022/05/29 11:10:30;;;;;;;1.67;1.10;;;11.80;67.30;;;;;;4956461;28;20034;-65
2022/05/29 11:13:14;;;;;;;2.63;1.20;;;11.60;67.80;;;;;;4952829;28;20039;-66
2022/05/29 11:16:00;;;;;;;1.55;1.08;;;11.50;68.00;;;;;;4959486;28;20035;-65
2022/05/29 11:18:44;;;;;;;2.15;1.20;;;11.30;70.10;;;;;;4958938;28;20587;-64
2022/05/29 11:21:09;;;;;;;2.83;1.35;;;11.20;71.20;;;;;;4956126;28;20074;-65
2022/05/29 11:23:54;;;;;;;2.15;1.27;;;11.20;69.60;;;;;;4956027;28;20062;-65
2022/05/29 11:26:34;;;;;;;1.63;1.08;;;11.10;70.00;;;;;;4953747;28;20038;-65
2022/05/29 11:29:14;;;;;;;2.22;1.20;;;11.00;71.20;;;;;;4952115;28;20042;-66
2022/05/29 11:31:48;;;;;;;6.63;4.20;;;11.00;71.00;;;;;;4956993;28;20038;-65
2022/05/29 11:34:32;;;;;;;6.30;3.90;;;11.00;71.40;;;;;;4954097;28;20125;-66
2022/05/29 11:37:37;;;;;;;2.38;1.80;;;11.00;70.90;;;;;;4956759;28;20106;-66
2022/05/29 11:40:30;;;;;;;1.50;1.15;;;11.00;72.30;;;;;;4956326;28;20045;-66
2022/05/29 11:42:59;;;;;;;1.83;1.30;;;11.00;72.60;;;;;;4956382;28;20499;-66
2022/05/29 11:51:25;;;;;;;2.15;1.50;;;11.30;70.60;;;;;;4957824;28;20070;-64
2022/05/29 11:54:10;;;;;;;1.30;1.20;;;11.30;70.80;;;;;;4958907;28;20042;-63
2022/05/29 11:57:19;;;;;;;1.70;1.33;;;11.40;71.90;;;;;;4955282;28;20038;-65
2022/05/29 12:00:39;;;;;;;1.50;1.10;;;11.50;70.60;;;;;;4963321;28;20039;-65
2022/05/29 12:03:32;;;;;;;1.27;1.17;;;11.60;71.80;;;;;;4890420;29;20119;-65
2022/05/29 12:06:05;;;;;;;1.52;1.15;;;11.70;71.80;;;;;;4956633;28;20040;-65
2022/05/29 12:09:00;;;;;;;0.95;0.88;;;11.70;70.60;;;;;;4957934;28;20074;-64
2022/05/29 12:12:00;;;;;;;1.38;1.10;;;11.70;72.00;;;;;;4959304;28;20129;-65
2022/05/29 12:14:39;;;;;;;1.10;0.80;;;11.70;73.80;;;;;;4972619;28;20059;-66
2022/05/29 12:17:26;;;;;;;1.20;1.10;;;11.70;72.30;;;;;;4958711;28;20038;-66
2022/05/29 12:19:58;;;;;;;1.35;1.00;;;11.80;72.60;;;;;;4961433;28;20098;-64
2022/05/29 12:22:31;;;;;;;1.42;1.30;;;11.90;72.20;;;;;;4962916;28;20026;-65
2022/05/29 12:24:57;;;;;;;1.30;1.00;;;11.90;72.20;;;;;;4964776;28;20038;-64
2022/05/29 12:27:26;;;;;;;1.45;1.00;;;12.00;72.10;;;;;;4963530;28;20126;-65
2022/05/29 12:30:04;;;;;;;1.65;0.93;;;12.10;72.70;;;;;;4962378;28;20035;-64
2022/05/29 12:32:32;;;;;;;1.70;1.00;;;12.20;72.10;;;;;;4964763;28;20030;-65
2022/05/29 12:35:13;;;;;;;0.95;0.90;;;12.30;71.60;;;;;;4963185;28;20091;-65
2022/05/29 12:38:04;;;;;;;1.63;1.20;;;12.40;72.20;;;;;;4968898;28;20051;-66
2022/05/29 12:40:45;;;;;;;1.42;1.08;;;12.50;72.30;;;;;;4962544;28;20090;-66
2022/05/29 12:43:49;;;;;;;2.00;1.20;;;12.60;72.10;;;;;;4961501;28;20398;-66
2022/05/29 12:46:34;;;;;;;1.23;1.02;;;12.60;72.50;;;;;;4965687;28;20498;-66
2022/05/29 12:49:15;;;;;;;1.58;0.90;;;12.70;72.00;;;;;;4963380;28;20043;-67
2022/05/29 12:51:43;;;;;;;0.90;0.70;;;12.80;71.00;;;;;;4962141;28;20035;-66
2022/05/29 12:54:52;;;;;;;1.48;0.77;;;12.90;70.60;;;;;;4964131;28;20119;-66
2022/05/29 12:57:44;;;;;;;1.15;0.90;;;13.00;69.20;;;;;;4961490;28;20039;-66
2022/05/29 13:00:21;;;;;;;1.30;0.70;;;13.00;69.70;;;;;;4962591;28;20047;-66
2022/05/29 13:03:15;;;;;;;1.88;1.00;;;13.10;69.50;;;;;;4963566;28;20035;-66
2022/05/29 13:06:10;;;;;;;1.30;0.88;;;13.20;70.80;;;;;;4960624;28;20031;-65
2022/05/29 13:08:50;;;;;;;1.42;0.98;;;13.40;69.50;;;;;;4964776;28;20086;-66
2022/05/29 13:11:20;;;;;;;3.65;0.95;;;13.50;69.00;;;;;;4961581;28;20355;-66
2022/05/29 13:13:48;;;;;;;1.02;0.82;;;13.60;68.80;;;;;;4966137;28;20571;-66
2022/05/29 13:16:25;;;;;;;1.77;0.82;;;13.70;68.30;;;;;;4960567;28;20501;-66
2022/05/29 13:19:18;;;;;;;0.98;0.60;;;13.80;67.10;;;;;;4961848;28;20039;-66
2022/05/29 13:22:10;;;;;;;1.27;0.70;;;13.90;66.50;;;;;;4960485;28;20039;-66
2022/05/29 13:24:46;;;;;;;1.05;0.70;;;14.00;66.00;;;;;;4958083;28;20097;-66
2022/05/29 13:27:17;;;;;;;1.95;0.80;;;14.00;66.70;;;;;;4959250;28;20051;-67
2022/05/29 13:29:46;;;;;;;1.00;0.90;;;14.10;66.70;;;;;;4963774;28;20045;-66
2022/05/29 13:32:14;;;;;;;0.88;0.60;;;14.20;65.30;;;;;;4959114;28;20035;-67
2022/05/29 13:34:46;;;;;;;1.50;0.70;;;14.30;65.30;;;;;;4960055;28;20077;-65
2022/05/29 13:37:47;;;;;;;1.40;0.70;;;14.40;65.30;;;;;;4960829;28;20035;-67
2022/05/29 13:40:37;;;;;;;2.75;0.80;;;14.50;64.20;;;;;;4959086;28;20446;-68
2022/05/29 13:43:15;;;;;;;1.42;0.70;;;14.60;63.30;;;;;;4958985;28;20043;-66
2022/05/29 13:45:44;;;;;;;1.75;0.63;;;14.60;61.90;;;;;;4961960;28;20031;-67
2022/05/29 13:48:12;;;;;;;1.30;0.60;;;14.60;63.30;;;;;;4960312;28;20092;-67
2022/05/29 13:50:41;;;;;;;0.60;0.60;;;14.60;63.10;;;;;;4961955;28;20055;-66
2022/05/29 13:53:14;;;;;;;1.25;0.80;;;14.60;63.20;;;;;;4958929;28;20423;-67